createdAt,value
2022-12-18T00:02:36.118Z,10.88
2022-12-18T00:07:37.757Z,11.38
2022-12-18T00:12:39.270Z,12.18
2022-12-18T00:17:40.861Z,11.57
2022-12-18T00:22:42.344Z,11.18
2022-12-18T00:27:43.854Z,10.13
2022-12-18T00:32:45.394Z,10.00
2022-12-18T00:37:46.905Z,10.80
2022-12-18T00:42:48.488Z,10.38
2022-12-18T00:47:50.013Z,9.40
2022-12-18T00:52:52.024Z,9.27
2022-12-18T00:57:53.630Z,9.25
2022-12-18T01:02:55.192Z,10.55
2022-12-18T01:07:56.892Z,10.80
2022-12-18T01:12:58.430Z,9.90
2022-12-18T01:17:59.987Z,10.20
2022-12-18T01:23:02.163Z,11.82
2022-12-18T01:28:04.029Z,12.00
2022-12-18T01:33:07.525Z,12.18
2022-12-18T01:38:10.599Z,11.85
2022-12-18T01:43:12.661Z,11.43
2022-12-18T01:48:15.037Z,11.15
2022-12-18T01:53:24.069Z,13.10
2022-12-18T01:58:40.474Z,10.57
2022-12-18T02:03:44.373Z,13.43
2022-12-18T02:08:52.113Z,11.70
2022-12-18T02:13:59.688Z,11.45
2022-12-18T02:19:14.608Z,11.35
2022-12-18T02:24:35.894Z,11.48
2022-12-18T02:29:51.664Z,11.25
2022-12-18T02:34:58.529Z,12.38
2022-12-18T02:40:05.482Z,10.98
2022-12-18T02:45:08.988Z,9.88
2022-12-18T02:50:28.248Z,10.88
2022-12-18T02:55:52.810Z,10.40
2022-12-18T03:01:25.414Z,12.40
2022-12-18T03:06:34.859Z,11.52
2022-12-18T03:11:41.258Z,10.15
2022-12-18T03:21:54.532Z,8.48
2022-12-18T03:27:01.522Z,10.57
2022-12-18T03:32:09.011Z,9.18
2022-12-18T03:37:11.728Z,11.02
2022-12-18T03:42:26.726Z,8.30
2022-12-18T03:47:50.645Z,8.50
2022-12-18T03:52:58.088Z,9.23
2022-12-18T03:58:02.460Z,10.55
2022-12-18T04:03:15.429Z,9.10
2022-12-18T04:08:22.956Z,9.35
2022-12-18T04:13:39.744Z,9.90
2022-12-18T04:18:46.330Z,11.15
2022-12-18T04:23:49.868Z,12.80
2022-12-18T04:28:54.230Z,12.07
2022-12-18T04:33:56.172Z,10.80
2022-12-18T04:38:58.479Z,9.90
2022-12-18T04:44:00.504Z,10.38
2022-12-18T04:49:02.077Z,11.10
2022-12-18T04:54:04.070Z,11.77
2022-12-18T04:59:05.575Z,10.27
2022-12-18T05:04:07.098Z,11.70
2022-12-18T05:09:08.730Z,11.20
2022-12-18T05:14:11.231Z,10.98
2022-12-18T05:19:12.746Z,11.00
2022-12-18T05:24:15.005Z,9.35
2022-12-18T05:29:16.529Z,11.60
2022-12-18T05:34:18.067Z,10.32
2022-12-18T05:39:19.564Z,12.23
2022-12-18T05:44:21.103Z,12.68
2022-12-18T05:49:22.596Z,11.23
2022-12-18T05:54:24.118Z,13.52
2022-12-18T05:59:25.626Z,14.07
2022-12-18T06:04:28.426Z,12.88
2022-12-18T06:09:30.368Z,11.75
2022-12-18T06:14:31.915Z,12.68
2022-12-18T06:19:33.383Z,11.88
2022-12-18T06:24:36.237Z,11.23
2022-12-18T06:29:37.752Z,11.18
2022-12-18T06:34:39.239Z,11.88
2022-12-18T06:39:40.735Z,11.43
2022-12-18T06:44:42.231Z,11.55
2022-12-18T06:49:44.199Z,11.30
2022-12-18T06:54:45.711Z,10.77
2022-12-18T06:59:47.232Z,10.90
2022-12-18T07:04:51.836Z,11.68
2022-12-18T07:09:53.362Z,12.25
2022-12-18T07:14:54.872Z,11.70
2022-12-18T07:19:56.546Z,11.65
2022-12-18T07:24:58.124Z,10.65
2022-12-18T07:29:59.603Z,12.23
2022-12-18T07:35:01.125Z,12.23
2022-12-18T07:40:02.702Z,11.45
2022-12-18T07:45:04.964Z,13.35
2022-12-18T07:50:06.899Z,12.77
2022-12-18T07:55:08.842Z,13.10
2022-12-18T08:00:11.351Z,13.13
2022-12-18T08:05:15.599Z,13.07
2022-12-18T08:10:17.576Z,15.40
2022-12-18T08:15:19.184Z,13.77
2022-12-18T08:20:20.707Z,15.15
2022-12-18T08:25:23.302Z,15.70
2022-12-18T08:30:24.893Z,19.08
2022-12-18T08:35:26.436Z,18.15
2022-12-18T08:40:27.915Z,16.67
2022-12-18T08:45:29.450Z,15.93
2022-12-18T08:50:30.996Z,16.20
2022-12-18T08:55:32.634Z,16.50
2022-12-18T09:00:34.093Z,16.02
2022-12-18T09:05:35.634Z,16.70
2022-12-18T09:10:45.942Z,16.25
2022-12-18T09:15:51.547Z,13.00
2022-12-18T09:20:53.094Z,12.82
2022-12-18T09:25:59.803Z,12.50
2022-12-18T09:31:06.212Z,13.15
2022-12-18T09:36:10.026Z,11.65
2022-12-18T09:41:40.023Z,10.43
2022-12-18T09:46:47.685Z,11.77
2022-12-18T09:51:55.600Z,12.02
2022-12-18T09:56:57.149Z,10.65
2022-12-18T10:01:58.740Z,9.38
2022-12-18T10:07:18.484Z,10.02
2022-12-18T10:12:42.399Z,11.82
2022-12-18T10:17:56.249Z,10.45
2022-12-18T10:23:26.603Z,10.50
2022-12-18T10:28:38.679Z,9.40
2022-12-18T10:33:40.355Z,9.65
2022-12-18T10:38:42.892Z,9.10
2022-12-18T10:43:45.026Z,10.82
2022-12-18T10:48:52.897Z,9.50
2022-12-18T10:53:58.755Z,9.80
2022-12-18T10:59:09.022Z,9.40
2022-12-18T11:04:10.725Z,8.90
2022-12-18T11:09:24.166Z,9.52
2022-12-18T11:14:38.327Z,11.32
2022-12-18T11:19:42.506Z,9.63
2022-12-18T11:24:53.138Z,9.90
2022-12-18T11:30:20.580Z,11.57
2022-12-18T11:35:48.105Z,10.93
2022-12-18T11:41:07.577Z,10.52
2022-12-18T11:46:20.035Z,10.30
2022-12-18T11:51:29.461Z,10.32
2022-12-18T11:56:36.920Z,10.25
2022-12-18T12:01:53.482Z,10.63
2022-12-18T12:07:03.317Z,10.43
2022-12-18T12:12:48.052Z,10.43
2022-12-18T12:18:00.162Z,9.68
2022-12-18T12:23:20.006Z,12.30
2022-12-18T12:28:47.681Z,11.45
2022-12-18T12:34:07.340Z,10.40
2022-12-18T12:39:15.760Z,11.85
2022-12-18T12:44:24.305Z,11.38
2022-12-18T12:49:29.805Z,12.95
2022-12-18T12:54:33.725Z,11.77
2022-12-18T12:59:35.294Z,11.73
2022-12-18T13:04:50.330Z,11.85
2022-12-18T13:10:19.591Z,12.40
2022-12-18T13:15:26.185Z,11.90
2022-12-18T13:20:35.153Z,10.40
2022-12-18T13:25:38.980Z,12.35
2022-12-18T13:30:55.340Z,13.82
2022-12-18T13:36:28.099Z,12.18
2022-12-18T13:41:29.786Z,12.30
2022-12-18T13:46:46.446Z,12.13
2022-12-18T13:51:51.570Z,12.48
2022-12-18T13:56:54.009Z,12.87
2022-12-18T14:01:58.423Z,12.95
2022-12-18T14:07:11.543Z,14.32
2022-12-18T14:12:24.867Z,12.45
2022-12-18T14:17:27.625Z,13.52
2022-12-18T14:22:30.125Z,12.27
2022-12-18T14:27:31.593Z,13.07
2022-12-18T14:32:33.097Z,13.55
2022-12-18T14:37:34.593Z,14.05
2022-12-18T14:42:36.140Z,14.07
2022-12-18T14:47:37.721Z,13.88
2022-12-18T14:52:39.550Z,13.07
2022-12-18T14:57:41.114Z,14.02
2022-12-18T15:02:45.915Z,15.48
2022-12-18T15:07:52.775Z,13.57
2022-12-18T15:12:57.092Z,14.88
2022-12-18T15:18:04.024Z,12.93
2022-12-18T15:23:05.731Z,16.05
2022-12-18T15:28:31.985Z,16.98
2022-12-18T15:33:39.157Z,13.63
2022-12-18T15:38:41.645Z,16.95
2022-12-18T15:43:43.713Z,14.48
2022-12-18T15:48:59.638Z,14.82
2022-12-18T15:54:05.844Z,15.23
2022-12-18T15:59:19.463Z,13.52
2022-12-18T16:04:22.958Z,15.15
2022-12-18T16:09:26.409Z,15.02
2022-12-18T16:14:30.737Z,15.82
2022-12-18T16:19:32.254Z,17.60
2022-12-18T16:24:34.623Z,14.60
2022-12-18T16:29:36.126Z,18.83
2022-12-18T16:34:37.630Z,16.42
2022-12-18T16:39:40.137Z,14.82
2022-12-18T16:44:42.187Z,15.88
2022-12-18T16:49:44.363Z,15.73
2022-12-18T16:54:45.927Z,14.45
2022-12-18T16:59:47.742Z,16.77
2022-12-18T17:04:50.680Z,16.77
2022-12-18T17:09:52.151Z,16.92
2022-12-18T17:14:53.679Z,15.60
2022-12-18T17:19:55.143Z,15.18
2022-12-18T17:24:56.654Z,17.45
2022-12-18T17:29:58.157Z,16.20
2022-12-18T17:35:03.912Z,16.35
2022-12-18T17:40:10.430Z,18.30
2022-12-18T17:45:11.914Z,17.42
2022-12-18T17:50:13.429Z,18.10
2022-12-18T17:55:15.057Z,19.30
2022-12-18T18:00:16.972Z,17.77
2022-12-18T18:05:18.437Z,18.38
2022-12-18T18:10:19.933Z,17.70
2022-12-18T18:15:21.469Z,19.08
2022-12-18T18:20:23.071Z,18.25
2022-12-18T18:25:24.732Z,18.20
2022-12-18T18:30:27.386Z,18.20
2022-12-18T18:35:52.936Z,16.92
2022-12-18T18:41:01.601Z,19.80
2022-12-18T18:46:05.088Z,16.92
2022-12-18T18:51:10.639Z,16.70
2022-12-18T18:56:45.529Z,16.42
2022-12-18T19:01:38.613Z,16.45
2022-12-18T19:06:40.213Z,17.98
2022-12-18T19:11:42.344Z,18.02
2022-12-18T19:16:44.310Z,17.80
2022-12-18T19:21:46.442Z,26.42
2022-12-18T19:26:48.035Z,18.33
2022-12-18T19:31:49.590Z,18.92
2022-12-18T19:36:56.480Z,17.42
2022-12-18T19:42:01.069Z,15.88
2022-12-18T19:47:02.595Z,17.92
2022-12-18T19:52:04.265Z,17.30
2022-12-18T19:57:05.850Z,17.25
2022-12-18T20:02:14.398Z,17.33
2022-12-18T20:07:16.026Z,16.70
2022-12-18T20:12:17.533Z,17.17
2022-12-18T20:17:19.093Z,17.27
2022-12-18T20:22:20.930Z,16.55
2022-12-18T20:27:22.515Z,17.95
2022-12-18T20:32:25.661Z,18.08
2022-12-18T20:37:27.149Z,17.42
2022-12-18T20:42:29.171Z,16.63
2022-12-18T20:47:30.681Z,19.80
2022-12-18T20:52:32.239Z,16.05
2022-12-18T20:57:33.779Z,16.70
2022-12-18T21:02:37.033Z,18.40
2022-12-18T21:07:38.598Z,17.65
2022-12-18T21:12:49.246Z,18.80
2022-12-18T21:18:01.788Z,16.83
2022-12-18T21:23:12.037Z,16.35
2022-12-18T21:28:18.255Z,18.60
2022-12-18T21:33:19.780Z,18.17
2022-12-18T21:38:21.311Z,17.73
2022-12-18T21:43:22.996Z,18.08
2022-12-18T21:48:24.482Z,18.30
2022-12-18T21:53:26.062Z,19.88
2022-12-18T21:58:27.999Z,20.05
2022-12-18T22:03:29.604Z,17.60
2022-12-18T22:08:31.224Z,18.92
2022-12-18T22:13:33.088Z,17.98
2022-12-18T22:18:34.574Z,18.88
2022-12-18T22:23:36.062Z,20.90
2022-12-18T22:28:37.582Z,20.75
2022-12-18T22:33:39.081Z,19.95
2022-12-18T22:38:40.582Z,20.95
2022-12-18T22:43:42.258Z,22.25
2022-12-18T22:48:43.882Z,19.90
2022-12-18T22:53:45.785Z,19.25
2022-12-18T22:58:51.384Z,21.40
2022-12-18T23:03:53.681Z,21.88
2022-12-18T23:08:56.589Z,22.23
2022-12-18T23:13:58.080Z,20.80
2022-12-18T23:19:00.401Z,22.05
2022-12-18T23:24:02.032Z,22.70
2022-12-18T23:29:03.932Z,22.33
2022-12-18T23:34:06.878Z,21.63
2022-12-18T23:39:11.869Z,21.85
2022-12-18T23:44:16.871Z,19.13
2022-12-18T23:49:18.369Z,20.63
2022-12-18T23:54:32.770Z,24.27
2022-12-18T23:59:34.800Z,22.08
